• Join FlightAware (Why Join?)
  • Login
  • US Flag 
06:36PM EST


 

Airport Tracker/Info


-or-


 

Live Flight TrackerFlight Track Log ✈ RAX500 ✈ 03-May-2013 ✈ KSUA - KSYR

Flight Track Log - Related Links

Times and Time Zones

All times are in EDT time to prevent confusion due to time zone crossing. See the RAX500 flight status page for this flight to view local times or setup timezone preferences in your user account.

Time Position Orientation Groundspeed Altitude Reporting Facility
EDT Latitude Longitude Course Direction KTS MPH feet Rate Location/Type
03:59PM 27.2172 -80.3158 320° Northwest 185 213 4,100  Level Miami Center
04:00PM 27.2581 -80.3544 320° Northwest 192 221 6,700 2,400 Climbing Miami Center
04:01PM 27.3200 -80.3914 332° Northwest 232 267 8,900 2,640 Climbing Miami Center
04:02PM 27.3853 -80.4564 319° Northwest 279 321 12,000 2,880 Climbing Miami Center
04:03PM 27.4572 -80.4961 334° Northwest 284 327 14,700 2,460 Climbing Miami Center
04:04PM 27.5208 -80.5356 331° Northwest 289 333 17,000 2,280 Climbing Miami Center
04:05PM 27.5944 -80.5989 323° Northwest 300 345 19,300 1,920 Climbing Miami Center
04:06PM 27.6658 -80.6597 323° Northwest 310 357 20,900 1,560 Climbing Miami Center
04:07PM 27.7436 -80.7211 325° Northwest 321 369 22,500 1,560 Climbing Miami Center
04:08PM 27.8211 -80.7847 324° Northwest 336 387 24,100 1,500 Climbing Miami Center
04:09PM 27.8947 -80.8414 326° Northwest 351 404 25,600 1,500 Climbing Miami Center
04:10PM 27.9744 -80.9028 326° Northwest 351 404 27,100 1,500 Climbing Miami Center
04:11PM 28.0583 -80.9647 327° Northwest 351 404 28,600 1,440 Climbing Miami Center
04:12PM 28.1467 -81.0172 332° Northwest 351 404 30,000 1,380 Climbing Miami Center
04:13PM 28.2347 -81.0747 330° Northwest 356 410 31,400 1,440 Climbing Miami Center
04:14PM 28.3219 -81.1511 322° Northwest 357 411 32,900 1,200 Climbing Miami Center
04:15PM 28.3972 -81.2153 323° Northwest 364 419 33,900 1,020 Climbing Miami Center
04:16PM 28.4897 -81.2592 337° Northwest 364 419 35,000 780 Climbing Miami Center
04:17PM 28.5572 -81.2736 349° North 364 419 35,200 420 Climbing Jacksonville Center
04:18PM 28.6572 -81.2744 360° North 364 419 35,700 660 Climbing Jacksonville Center
04:19PM 28.7681 -81.2797 358° North 382 440 36,600 780 Climbing Jacksonville Center
04:20PM 28.8761 -81.2494 14° North 393 452 37,300 540 Climbing Jacksonville Center
04:21PM 28.9819 -81.2072 19° North 393 452 37,700 360 Climbing Jacksonville Center
04:22PM 29.0900 -81.1581 22° Northeast 401 461 38,100 540 Climbing Jacksonville Center
04:23PM 29.2019 -81.1181 17° North 406 467 38,800 660 Climbing Jacksonville Center
04:24PM 29.3100 -81.0828 16° North 406 467 39,500 600 Climbing Jacksonville Center
04:25PM 29.4161 -81.0472 16° North 395 455 40,100 420 Climbing Jacksonville Center
04:26PM 29.5178 -81.0097 18° North 390 449 40,400 300 Climbing Jacksonville Center
04:27PM 29.6300 -80.9692 17° North 390 449 40,800 300 Climbing Jacksonville Center
04:28PM 29.7336 -80.9336 17° North 395 455 41,000 60 Climbing Jacksonville Center
04:29PM 29.8439 -80.8931 18° North 395 455 41,000  Level Jacksonville Center
04:30PM 29.9517 -80.8550 17° North 395 455 41,000  Level Jacksonville Center
04:31PM 30.0658 -80.8189 15° North 400 460 41,000  Level Jacksonville Center
04:32PM 30.1800 -80.7781 17° North 407 468 41,000  Level Jacksonville Center
04:33PM 30.2942 -80.7394 16° North 415 478 41,000  Level Jacksonville Center
04:34PM 30.4108 -80.7128 11° North 420 483 41,000  Level Jacksonville Center
04:35PM 30.5314 -80.6811 13° North 425 489 41,000 -60 Level Jacksonville Center
04:36PM 30.6517 -80.6469 14° North 430 495 40,900  Descending Jacksonville Center
04:37PM 30.7722 -80.6053 17° North 435 501 41,000  Climbing Jacksonville Center
04:38PM 30.8925 -80.5686 15° North 435 501 41,000  Level Jacksonville Center
04:39PM 31.0108 -80.5317 15° North 435 501 41,000  Level Jacksonville Center
04:40PM 31.1353 -80.4897 16° North 440 506 41,000  Level Jacksonville Center
04:41PM 31.2556 -80.4478 17° North 440 506 41,000 -60 Level Jacksonville Center
04:42PM 31.3778 -80.3958 20° North 450 518 40,900 -60 Descending Jacksonville Center
04:43PM 31.5003 -80.3536 16° North 455 524 40,900  Level Jacksonville Center
04:44PM 31.6206 -80.3139 16° North 455 524 41,000  Climbing Jacksonville Center
04:45PM 31.7472 -80.2833 12° North 450 518 41,000 -60 Level Jacksonville Center
04:46PM 31.8694 -80.2383 17° North 450 518 40,900 -60 Descending Jacksonville Center
04:47PM 31.9917 -80.1933 17° North 450 518 40,900  Level Jacksonville Center
04:48PM 32.1139 -80.1503 17° North 450 518 40,900  Level Jacksonville Center
04:49PM 32.2342 -80.1147 14° North 456 525 40,900  Level Jacksonville Center
04:50PM 32.3564 -80.0694 17° North 451 519 40,900  Level Jacksonville Center
04:51PM 32.4786 -80.0261 17° North 451 519 40,900  Level Jacksonville Center
04:52PM 32.5964 -79.9756 20° North 451 519 40,900  Level Jacksonville Center
04:53PM 32.7183 -79.9297 18° North 457 526 40,900  Level Jacksonville Center
04:54PM 32.8389 -79.8986 12° North 452 520 40,900  Level Jacksonville Center
04:55PM 32.9633 -79.8647 13° North 452 520 40,900  Level Jacksonville Center
04:56PM 33.0978 -79.8156 17° North 452 520 40,900  Level Jacksonville Center
04:57PM 33.2200 -79.7839 12° North 452 520 40,900  Level Jacksonville Center
04:58PM 33.3425 -79.7522 12° North 452 520 40,900  Level Jacksonville Center
04:59PM 33.4625 -79.7158 14° North 452 520 40,900  Level Jacksonville Center
05:00PM 33.5825 -79.6742 16° North 447 514 40,900  Level Jacksonville Center
05:01PM 33.7047 -79.6397 13° North 447 514 40,900  Level Jacksonville Center
05:02PM 33.8269 -79.6050 13° North 447 514 40,900  Level Jacksonville Center
05:03PM 33.9469 -79.5656 15° North 447 514 40,900  Level Jacksonville Center
05:05PM 34.1817 -79.4803 17° North 444 511 40,900  Level Washington Center
05:06PM 34.2933 -79.4456 14° North 450 518 41,000  Climbing Washington Center
05:07PM 34.4136 -79.4033 16° North 450 518 41,000  Level Washington Center
05:08PM 34.5319 -79.3533 19° North 445 512 41,000  Level Washington Center
05:09PM 34.6503 -79.3083 17° North 445 512 41,000  Level Washington Center
05:10PM 34.7706 -79.2658 16° North 445 512 41,000  Level Washington Center
05:11PM 34.9028 -79.2364 10° North 439 505 41,000  Level Washington Center
05:12PM 35.0269 -79.2089 10° North 434 499 41,000  Level Washington Center
05:13PM 35.1469 -79.1711 14° North 434 499 41,000 -60 Level Washington Center
05:14PM 35.2653 -79.1203 19° North 434 499 40,900  Descending Washington Center
05:15PM 35.3836 -79.0694 19° North 453 521 41,000  Climbing Washington Center
05:16PM 35.5017 -79.0261 17° North 441 507 41,000  Level Washington Center
05:18PM 35.7394 -78.9544 14° North 441 507 41,000  Level Washington Center
05:19PM 35.8556 -78.9108 17° North 436 502 41,000  Level Washington Center
05:20PM 35.9714 -78.8694 16° North 436 502 41,000  Level Washington Center
05:21PM 36.0892 -78.8333 14° North 436 502 41,000  Level Washington Center
05:22PM 36.2069 -78.7994 13° North 436 502 41,000  Level Washington Center
05:23PM 36.3228 -78.7603 15° North 436 502 41,000  Level Washington Center
05:24PM 36.4408 -78.7161 17° North 436 502 41,000  Level Washington Center
05:25PM 36.5586 -78.6769 15° North 436 502 41,000  Level Washington Center
05:26PM 36.6725 -78.6347 17° North 436 502 41,000  Level Washington Center
05:27PM 36.7922 -78.5981 14° North 436 502 41,000  Level Washington Center
05:28PM 36.9081 -78.5558 16° North 436 502 41,000  Level Washington Center
05:29PM 37.0131 -78.5233 14° North 436 502 41,000  Level Washington Center
05:30PM 37.1331 -78.4889 13° North 436 502 41,000  Level Washington Center
05:31PM 37.2506 -78.4514 14° North 436 502 41,000  Level Washington Center
05:32PM 37.3789 -78.4067 15° North 436 502 41,000  Level Washington Center
05:33PM 37.4947 -78.3664 15° North 436 502 41,000  Level Washington Center
05:34PM 37.6064 -78.3156 20° North 436 502 41,000  Level Washington Center
05:35PM 37.7181 -78.2617 21° North 431 496 41,000  Level Washington Center
05:36PM 37.8211 -78.2233 16° North 431 496 41,000  Level Washington Center
05:37PM 37.9306 -78.1797 17° North 425 489 41,000  Level Washington Center
05:38PM 38.0419 -78.1361 17° North 418 481 41,000  Level Washington Center
05:39PM 38.1556 -78.0925 17° North 418 481 41,000 -60 Level Washington Center
05:40PM 38.2672 -78.0406 20° North 418 481 40,900 -60 Descending Washington Center
05:41PM 38.3767 -77.9886 20° North 423 487 40,900  Level Washington Center
05:42PM 38.4919 -77.9500 15° North 423 487 41,000  Climbing Washington Center
05:43PM 38.6053 -77.9189 12° North 417 480 41,000  Level Washington Center
05:44PM 38.7186 -77.8800 15° North 417 480 41,000  Level Washington Center
05:45PM 38.8322 -77.8300 19° North 422 486 41,000  Level Washington Center
05:46PM 38.9517 -77.7858 16° North 422 486 41,000 -60 Level Washington Center
05:47PM 39.0544 -77.7542 13° North 417 480 40,900 -240 Descending Washington Center
05:48PM 39.1864 -77.7206 11° North 422 486 40,600 -540 Descending Washington Center
05:50PM 39.4258 -77.6333 16° North 436 502 39,300 -600 Descending New York Center
05:51PM 39.5436 -77.5800 19° North 441 507 38,800 -540 Descending New York Center
05:52PM 39.6608 -77.5347 17° North 441 507 38,300 -600 Descending New York Center
05:53PM 39.7819 -77.5006 12° North 441 507 37,700 -660 Descending New York Center
05:54PM 39.9042 -77.4769 North 441 507 37,100 -540 Descending New York Center
05:55PM 40.0275 -77.4347 15° North 441 507 36,700 -720 Descending New York Center
05:56PM 40.1564 -77.3681 22° Northeast 441 507 35,700 -840 Descending New York Center
05:57PM 40.2725 -77.3031 23° Northeast 448 516 35,100 -540 Descending New York Center
05:58PM 40.3875 -77.2594 16° North 440 506 34,700 -780 Descending New York Center
05:59PM 40.5081 -77.2297 11° North 435 501 33,600 -1,140 Descending New York Center
06:00PM 40.6328 -77.1950 12° North 441 507 32,500 -1,260 Descending New York Center
06:01PM 40.7503 -77.1431 19° North 441 507 31,100 -1,500 Descending New York Center
06:02PM 40.8703 -77.0828 21° North 446 513 29,600 -1,320 Descending New York Center
06:03PM 40.9894 -77.0333 17° North 451 519 28,500 -1,020 Descending New York Center
06:04PM 41.1106 -76.9922 14° North 451 519 27,600 -840 Descending New York Center
06:05PM 41.2275 -76.9478 16° North 440 506 26,900 -960 Descending New York Center
06:06PM 41.3403 -76.9000 18° North 434 499 25,700 -1,140 Descending New York Center
06:07PM 41.4531 -76.8522 18° North 428 493 24,700 -1,080 Descending New York Center
06:08PM 41.5494 -76.8000 22° Northeast 418 481 23,600 -1,140 Descending New York Center
06:09PM 41.6667 -76.7467 19° North 412 474 22,500 -1,080 Descending New York Center
06:10PM 41.7692 -76.7000 19° North 401 461 21,500 -1,140 Descending New York Center
06:11PM 41.8736 -76.6508 19° North 395 455 20,300 -1,200 Descending New York Center
06:12PM 41.9656 -76.6033 21° North 395 455 19,200 -1,200 Descending New York Center
06:13PM 42.0672 -76.5675 15° North 389 448 17,900 -1,200 Descending New York Center
06:14PM 42.1661 -76.5456 North 377 434 16,900 -1,680 Descending New York Center
06:15PM 42.2614 -76.5119 15° North 362 417 14,700 -2,700 Descending New York Center
06:16PM 42.3494 -76.4550 26° Northeast 351 404 11,600 -2,100 Descending New York Center
06:17PM 42.4244 -76.4206 19° North 334 384 11,100 -480 Descending Boston Center
06:18PM 42.5006 -76.3886 17° North 329 379 10,900 -60 Descending Boston Center
06:19PM 42.5939 -76.3439 19° North 342 394 11,000 -540 Climbing Boston Center
06:20PM 42.6722 -76.3092 18° North 281 323 9,900 -1,920 Descending Boston Center
06:21PM 42.7461 -76.2800 16° North 273 314 7,100 -2,460 Descending Boston Center
06:22PM 42.8264 -76.2511 15° North 271 312 4,700 -1,500 Descending Boston Center
06:23PM 42.8964 -76.2183 19° North 266 306 4,000 -360 Descending Boston Center
06:24PM 42.9653 -76.2086 North 263 303 4,000 -480 Level Boston Center
06:25PM 43.0361 -76.2128 358° North 253 291 3,100 -1,080 Descending Boston Center
06:26PM 43.0947 -76.2022 North 166 191 1,900 -1,200 Descending Boston Center